sensor_id;sensor_type;location;lat;lon;timestamp;P1;durP1;ratioP1;P2;durP2;ratioP2
60610;SDS011;46439;51.164;13.572;2022-11-15T00:01:15;63.50;;;33.80;;
60610;SDS011;46439;51.164;13.572;2022-11-15T00:03:45;64.20;;;33.80;;
60610;SDS011;46439;51.164;13.572;2022-11-15T00:06:17;68.10;;;35.00;;
60610;SDS011;46439;51.164;13.572;2022-11-15T00:08:45;68.60;;;34.80;;
60610;SDS011;46439;51.164;13.572;2022-11-15T00:11:14;68.90;;;34.70;;
60610;SDS011;46439;51.164;13.572;2022-11-15T00:13:42;70.80;;;35.50;;
60610;SDS011;46439;51.164;13.572;2022-11-15T00:16:11;66.60;;;33.70;;
60610;SDS011;46439;51.164;13.572;2022-11-15T00:18:45;64.20;;;34.10;;
60610;SDS011;46439;51.164;13.572;2022-11-15T00:21:14;58.80;;;32.70;;
60610;SDS011;46439;51.164;13.572;2022-11-15T00:23:47;65.60;;;34.20;;
60610;SDS011;46439;51.164;13.572;2022-11-15T00:26:16;63.50;;;34.10;;
60610;SDS011;46439;51.164;13.572;2022-11-15T00:28:44;62.10;;;34.80;;
60610;SDS011;46439;51.164;13.572;2022-11-15T00:31:15;64.80;;;35.00;;
60610;SDS011;46439;51.164;13.572;2022-11-15T00:33:44;69.00;;;34.70;;
60610;SDS011;46439;51.164;13.572;2022-11-15T00:36:13;66.10;;;33.40;;
60610;SDS011;46439;51.164;13.572;2022-11-15T00:39:02;65.30;;;33.80;;
60610;SDS011;46439;51.164;13.572;2022-11-15T00:41:32;67.40;;;34.30;;
60610;SDS011;46439;51.164;13.572;2022-11-15T00:44:00;68.60;;;35.60;;
60610;SDS011;46439;51.164;13.572;2022-11-15T00:46:29;64.10;;;33.30;;
60610;SDS011;46439;51.164;13.572;2022-11-15T00:48:58;66.60;;;35.60;;
60610;SDS011;46439;51.164;13.572;2022-11-15T00:51:26;61.00;;;31.90;;
60610;SDS011;46439;51.164;13.572;2022-11-15T00:53:55;67.40;;;36.70;;
60610;SDS011;46439;51.164;13.572;2022-11-15T00:56:23;71.80;;;34.30;;
60610;SDS011;46439;51.164;13.572;2022-11-15T00:58:52;69.30;;;35.60;;
60610;SDS011;46439;51.164;13.572;2022-11-15T01:01:20;67.90;;;34.90;;
60610;SDS011;46439;51.164;13.572;2022-11-15T01:03:49;73.70;;;36.80;;
60610;SDS011;46439;51.164;13.572;2022-11-15T01:06:17;67.80;;;35.70;;
60610;SDS011;46439;51.164;13.572;2022-11-15T01:08:46;70.20;;;36.20;;
60610;SDS011;46439;51.164;13.572;2022-11-15T01:11:14;69.50;;;36.50;;
60610;SDS011;46439;51.164;13.572;2022-11-15T01:13:43;66.50;;;36.00;;
60610;SDS011;46439;51.164;13.572;2022-11-15T01:16:12;72.10;;;36.40;;
60610;SDS011;46439;51.164;13.572;2022-11-15T01:18:43;75.00;;;37.30;;
60610;SDS011;46439;51.164;13.572;2022-11-15T01:21:12;73.20;;;37.30;;
60610;SDS011;46439;51.164;13.572;2022-11-15T01:23:43;73.50;;;37.20;;
60610;SDS011;46439;51.164;13.572;2022-11-15T01:26:12;72.60;;;35.90;;
60610;SDS011;46439;51.164;13.572;2022-11-15T01:28:42;77.30;;;36.90;;
60610;SDS011;46439;51.164;13.572;2022-11-15T01:31:12;74.60;;;36.20;;
60610;SDS011;46439;51.164;13.572;2022-11-15T01:33:42;76.30;;;38.00;;
60610;SDS011;46439;51.164;13.572;2022-11-15T01:36:12;82.70;;;38.70;;
60610;SDS011;46439;51.164;13.572;2022-11-15T01:38:42;71.90;;;37.20;;
60610;SDS011;46439;51.164;13.572;2022-11-15T01:41:15;79.90;;;38.70;;
60610;SDS011;46439;51.164;13.572;2022-11-15T01:43:46;72.90;;;36.80;;
60610;SDS011;46439;51.164;13.572;2022-11-15T01:46:24;69.60;;;34.20;;
60610;SDS011;46439;51.164;13.572;2022-11-15T01:48:57;69.80;;;34.80;;
60610;SDS011;46439;51.164;13.572;2022-11-15T01:51:29;66.50;;;36.30;;
60610;SDS011;46439;51.164;13.572;2022-11-15T01:54:00;70.10;;;34.90;;
60610;SDS011;46439;51.164;13.572;2022-11-15T01:56:32;68.40;;;34.90;;
60610;SDS011;46439;51.164;13.572;2022-11-15T01:59:09;68.50;;;34.30;;
60610;SDS011;46439;51.164;13.572;2022-11-15T02:01:39;69.40;;;34.50;;
60610;SDS011;46439;51.164;13.572;2022-11-15T02:04:10;69.60;;;34.60;;
60610;SDS011;46439;51.164;13.572;2022-11-15T02:06:42;70.30;;;33.70;;
60610;SDS011;46439;51.164;13.572;2022-11-15T02:09:13;66.20;;;34.60;;
60610;SDS011;46439;51.164;13.572;2022-11-15T02:11:42;65.80;;;33.10;;
60610;SDS011;46439;51.164;13.572;2022-11-15T02:14:13;66.50;;;34.70;;
60610;SDS011;46439;51.164;13.572;2022-11-15T02:16:47;66.90;;;34.00;;
60610;SDS011;46439;51.164;13.572;2022-11-15T02:19:28;66.10;;;35.20;;
60610;SDS011;46439;51.164;13.572;2022-11-15T02:22:10;71.40;;;35.60;;
60610;SDS011;46439;51.164;13.572;2022-11-15T02:24:51;68.80;;;34.40;;
60610;SDS011;46439;51.164;13.572;2022-11-15T02:27:42;63.40;;;33.10;;
60610;SDS011;46439;51.164;13.572;2022-11-15T02:30:37;64.70;;;32.30;;
60610;SDS011;46439;51.164;13.572;2022-11-15T02:33:14;65.80;;;33.30;;
60610;SDS011;46439;51.164;13.572;2022-11-15T02:35:56;62.90;;;33.30;;
60610;SDS011;46439;51.164;13.572;2022-11-15T02:38:29;68.90;;;34.10;;
60610;SDS011;46439;51.164;13.572;2022-11-15T02:41:03;64.80;;;32.60;;
60610;SDS011;46439;51.164;13.572;2022-11-15T02:43:37;63.30;;;32.10;;
60610;SDS011;46439;51.164;13.572;2022-11-15T02:46:23;70.10;;;32.80;;
60610;SDS011;46439;51.164;13.572;2022-11-15T02:49:17;61.80;;;31.60;;
60610;SDS011;46439;51.164;13.572;2022-11-15T02:51:46;65.00;;;32.00;;
60610;SDS011;46439;51.164;13.572;2022-11-15T02:54:19;59.80;;;30.90;;
60610;SDS011;46439;51.164;13.572;2022-11-15T02:56:50;64.10;;;32.20;;
60610;SDS011;46439;51.164;13.572;2022-11-15T02:59:27;61.60;;;30.90;;
60610;SDS011;46439;51.164;13.572;2022-11-15T03:02:24;69.80;;;34.20;;
60610;SDS011;46439;51.164;13.572;2022-11-15T03:05:04;67.70;;;31.60;;
60610;SDS011;46439;51.164;13.572;2022-11-15T03:07:43;65.40;;;33.20;;
60610;SDS011;46439;51.164;13.572;2022-11-15T03:10:19;60.90;;;30.30;;
60610;SDS011;46439;51.164;13.572;2022-11-15T03:12:54;60.60;;;32.30;;
60610;SDS011;46439;51.164;13.572;2022-11-15T03:15:27;64.00;;;31.70;;
60610;SDS011;46439;51.164;13.572;2022-11-15T03:17:59;60.60;;;29.80;;
60610;SDS011;46439;51.164;13.572;2022-11-15T03:20:31;65.10;;;31.80;;
60610;SDS011;46439;51.164;13.572;2022-11-15T03:23:03;62.70;;;31.80;;
60610;SDS011;46439;51.164;13.572;2022-11-15T03:25:34;64.10;;;30.70;;
60610;SDS011;46439;51.164;13.572;2022-11-15T03:28:08;65.10;;;31.80;;
60610;SDS011;46439;51.164;13.572;2022-11-15T03:30:39;64.60;;;32.60;;
60610;SDS011;46439;51.164;13.572;2022-11-15T03:33:09;60.70;;;31.50;;
60610;SDS011;46439;51.164;13.572;2022-11-15T03:35:40;58.90;;;30.30;;
60610;SDS011;46439;51.164;13.572;2022-11-15T03:38:14;61.10;;;30.60;;
60610;SDS011;46439;51.164;13.572;2022-11-15T03:40:47;59.60;;;30.10;;
60610;SDS011;46439;51.164;13.572;2022-11-15T03:43:22;63.70;;;30.20;;
60610;SDS011;46439;51.164;13.572;2022-11-15T03:45:58;61.00;;;30.90;;
60610;SDS011;46439;51.164;13.572;2022-11-15T03:48:33;56.90;;;29.90;;
60610;SDS011;46439;51.164;13.572;2022-11-15T03:51:06;62.00;;;31.10;;
60610;SDS011;46439;51.164;13.572;2022-11-15T03:53:36;58.60;;;30.40;;
60610;SDS011;46439;51.164;13.572;2022-11-15T03:56:04;57.10;;;29.90;;
60610;SDS011;46439;51.164;13.572;2022-11-15T03:58:33;54.50;;;29.10;;
60610;SDS011;46439;51.164;13.572;2022-11-15T04:01:02;56.10;;;28.00;;
60610;SDS011;46439;51.164;13.572;2022-11-15T04:03:30;55.90;;;28.70;;
60610;SDS011;46439;51.164;13.572;2022-11-15T04:05:59;57.40;;;28.90;;
60610;SDS011;46439;51.164;13.572;2022-11-15T04:08:27;50.30;;;28.60;;
60610;SDS011;46439;51.164;13.572;2022-11-15T04:10:55;55.70;;;28.30;;
60610;SDS011;46439;51.164;13.572;2022-11-15T04:13:24;54.20;;;28.00;;
60610;SDS011;46439;51.164;13.572;2022-11-15T04:15:52;55.80;;;29.40;;
60610;SDS011;46439;51.164;13.572;2022-11-15T04:18:21;59.20;;;29.80;;
60610;SDS011;46439;51.164;13.572;2022-11-15T04:20:50;62.60;;;29.80;;
60610;SDS011;46439;51.164;13.572;2022-11-15T04:23:38;53.60;;;29.50;;
60610;SDS011;46439;51.164;13.572;2022-11-15T04:26:32;55.30;;;28.60;;
60610;SDS011;46439;51.164;13.572;2022-11-15T04:29:01;54.80;;;27.90;;
60610;SDS011;46439;51.164;13.572;2022-11-15T04:31:48;57.60;;;27.90;;
60610;SDS011;46439;51.164;13.572;2022-11-15T04:34:17;57.30;;;28.60;;
60610;SDS011;46439;51.164;13.572;2022-11-15T04:36:45;53.10;;;28.00;;
60610;SDS011;46439;51.164;13.572;2022-11-15T04:39:32;51.50;;;28.00;;
60610;SDS011;46439;51.164;13.572;2022-11-15T04:42:01;56.80;;;27.70;;
60610;SDS011;46439;51.164;13.572;2022-11-15T04:44:30;55.70;;;28.40;;
60610;SDS011;46439;51.164;13.572;2022-11-15T04:46:58;54.30;;;27.50;;
60610;SDS011;46439;51.164;13.572;2022-11-15T04:49:27;52.70;;;25.80;;
60610;SDS011;46439;51.164;13.572;2022-11-15T04:51:55;52.60;;;26.80;;
60610;SDS011;46439;51.164;13.572;2022-11-15T04:54:24;55.10;;;26.50;;
60610;SDS011;46439;51.164;13.572;2022-11-15T04:56:52;58.90;;;27.10;;
60610;SDS011;46439;51.164;13.572;2022-11-15T04:59:20;56.50;;;27.50;;
60610;SDS011;46439;51.164;13.572;2022-11-15T05:01:49;54.70;;;27.90;;
60610;SDS011;46439;51.164;13.572;2022-11-15T05:04:17;57.00;;;28.10;;
60610;SDS011;46439;51.164;13.572;2022-11-15T05:06:46;51.40;;;27.60;;
60610;SDS011;46439;51.164;13.572;2022-11-15T05:09:17;49.40;;;26.40;;
60610;SDS011;46439;51.164;13.572;2022-11-15T05:11:46;48.30;;;25.30;;
60610;SDS011;46439;51.164;13.572;2022-11-15T05:14:15;48.80;;;25.70;;
60610;SDS011;46439;51.164;13.572;2022-11-15T05:16:43;52.40;;;26.10;;
60610;SDS011;46439;51.164;13.572;2022-11-15T05:19:12;53.50;;;26.60;;
60610;SDS011;46439;51.164;13.572;2022-11-15T05:21:40;50.80;;;25.60;;
60610;SDS011;46439;51.164;13.572;2022-11-15T05:24:10;49.90;;;25.80;;
60610;SDS011;46439;51.164;13.572;2022-11-15T05:26:39;52.90;;;26.50;;
60610;SDS011;46439;51.164;13.572;2022-11-15T05:29:08;54.40;;;26.60;;
60610;SDS011;46439;51.164;13.572;2022-11-15T05:31:39;51.60;;;26.10;;
60610;SDS011;46439;51.164;13.572;2022-11-15T05:34:08;50.20;;;26.40;;
60610;SDS011;46439;51.164;13.572;2022-11-15T05:36:38;49.50;;;25.70;;
60610;SDS011;46439;51.164;13.572;2022-11-15T05:39:08;50.90;;;25.50;;
60610;SDS011;46439;51.164;13.572;2022-11-15T05:41:37;54.50;;;25.90;;
60610;SDS011;46439;51.164;13.572;2022-11-15T05:44:12;51.40;;;25.90;;
60610;SDS011;46439;51.164;13.572;2022-11-15T05:46:44;49.50;;;24.60;;
60610;SDS011;46439;51.164;13.572;2022-11-15T05:49:15;48.80;;;25.60;;
60610;SDS011;46439;51.164;13.572;2022-11-15T05:51:46;51.20;;;26.20;;
60610;SDS011;46439;51.164;13.572;2022-11-15T05:54:16;46.20;;;24.00;;
60610;SDS011;46439;51.164;13.572;2022-11-15T05:56:46;46.50;;;24.00;;
60610;SDS011;46439;51.164;13.572;2022-11-15T05:59:15;49.50;;;25.40;;
60610;SDS011;46439;51.164;13.572;2022-11-15T06:01:45;46.50;;;25.10;;
60610;SDS011;46439;51.164;13.572;2022-11-15T06:04:13;53.40;;;25.90;;
60610;SDS011;46439;51.164;13.572;2022-11-15T06:06:42;51.00;;;26.40;;
60610;SDS011;46439;51.164;13.572;2022-11-15T06:09:10;54.80;;;25.00;;
60610;SDS011;46439;51.164;13.572;2022-11-15T06:11:39;48.70;;;25.90;;
60610;SDS011;46439;51.164;13.572;2022-11-15T06:14:07;51.80;;;26.00;;
60610;SDS011;46439;51.164;13.572;2022-11-15T06:16:36;54.60;;;26.30;;
60610;SDS011;46439;51.164;13.572;2022-11-15T06:19:05;54.90;;;26.20;;
60610;SDS011;46439;51.164;13.572;2022-11-15T06:21:34;49.70;;;26.00;;
60610;SDS011;46439;51.164;13.572;2022-11-15T06:24:03;46.30;;;24.40;;
60610;SDS011;46439;51.164;13.572;2022-11-15T06:26:33;48.20;;;24.90;;
60610;SDS011;46439;51.164;13.572;2022-11-15T06:29:01;52.90;;;27.00;;
60610;SDS011;46439;51.164;13.572;2022-11-15T06:31:31;51.20;;;25.40;;
60610;SDS011;46439;51.164;13.572;2022-11-15T06:33:59;48.20;;;25.30;;
60610;SDS011;46439;51.164;13.572;2022-11-15T06:36:28;51.90;;;25.50;;
60610;SDS011;46439;51.164;13.572;2022-11-15T06:38:56;46.40;;;25.10;;
60610;SDS011;46439;51.164;13.572;2022-11-15T06:41:25;51.70;;;25.70;;
60610;SDS011;46439;51.164;13.572;2022-11-15T06:43:53;50.90;;;25.00;;
60610;SDS011;46439;51.164;13.572;2022-11-15T06:46:22;47.80;;;25.50;;
60610;SDS011;46439;51.164;13.572;2022-11-15T06:48:51;49.10;;;24.70;;
60610;SDS011;46439;51.164;13.572;2022-11-15T06:51:20;48.60;;;24.60;;
60610;SDS011;46439;51.164;13.572;2022-11-15T06:53:48;44.70;;;23.10;;
60610;SDS011;46439;51.164;13.572;2022-11-15T06:56:17;48.50;;;25.00;;
60610;SDS011;46439;51.164;13.572;2022-11-15T06:58:45;49.80;;;26.00;;
60610;SDS011;46439;51.164;13.572;2022-11-15T07:01:14;48.40;;;24.70;;
60610;SDS011;46439;51.164;13.572;2022-11-15T07:03:42;47.60;;;25.20;;
60610;SDS011;46439;51.164;13.572;2022-11-15T07:06:12;48.30;;;24.60;;
60610;SDS011;46439;51.164;13.572;2022-11-15T07:08:41;47.00;;;25.40;;
60610;SDS011;46439;51.164;13.572;2022-11-15T07:11:09;47.50;;;24.20;;
60610;SDS011;46439;51.164;13.572;2022-11-15T07:13:38;52.30;;;24.50;;
60610;SDS011;46439;51.164;13.572;2022-11-15T07:16:07;44.40;;;23.30;;
60610;SDS011;46439;51.164;13.572;2022-11-15T07:18:38;42.80;;;23.80;;
60610;SDS011;46439;51.164;13.572;2022-11-15T07:21:07;46.20;;;22.70;;
60610;SDS011;46439;51.164;13.572;2022-11-15T07:23:37;42.60;;;23.10;;
60610;SDS011;46439;51.164;13.572;2022-11-15T07:26:06;44.40;;;23.50;;
60610;SDS011;46439;51.164;13.572;2022-11-15T07:28:35;42.20;;;23.20;;
60610;SDS011;46439;51.164;13.572;2022-11-15T07:31:04;43.20;;;22.20;;
60610;SDS011;46439;51.164;13.572;2022-11-15T07:33:35;41.30;;;23.20;;
60610;SDS011;46439;51.164;13.572;2022-11-15T07:36:06;42.90;;;23.10;;
60610;SDS011;46439;51.164;13.572;2022-11-15T07:38:35;43.70;;;22.30;;
60610;SDS011;46439;51.164;13.572;2022-11-15T07:41:04;40.50;;;23.70;;
60610;SDS011;46439;51.164;13.572;2022-11-15T07:43:33;41.20;;;22.00;;
60610;SDS011;46439;51.164;13.572;2022-11-15T07:46:05;37.70;;;21.90;;
60610;SDS011;46439;51.164;13.572;2022-11-15T07:48:35;42.10;;;22.00;;
60610;SDS011;46439;51.164;13.572;2022-11-15T07:51:06;36.90;;;20.50;;
60610;SDS011;46439;51.164;13.572;2022-11-15T07:53:36;38.00;;;22.10;;
60610;SDS011;46439;51.164;13.572;2022-11-15T07:56:07;37.50;;;21.20;;
60610;SDS011;46439;51.164;13.572;2022-11-15T07:58:36;42.30;;;21.90;;
60610;SDS011;46439;51.164;13.572;2022-11-15T08:01:05;41.00;;;22.00;;
60610;SDS011;46439;51.164;13.572;2022-11-15T08:03:35;39.80;;;22.00;;
60610;SDS011;46439;51.164;13.572;2022-11-15T08:06:04;39.20;;;22.10;;
60610;SDS011;46439;51.164;13.572;2022-11-15T08:08:33;37.00;;;21.10;;
60610;SDS011;46439;51.164;13.572;2022-11-15T08:11:02;38.90;;;21.70;;
60610;SDS011;46439;51.164;13.572;2022-11-15T08:13:30;41.50;;;20.20;;
60610;SDS011;46439;51.164;13.572;2022-11-15T08:15:59;36.10;;;20.60;;
60610;SDS011;46439;51.164;13.572;2022-11-15T08:18:29;33.80;;;19.90;;
60610;SDS011;46439;51.164;13.572;2022-11-15T08:20:59;36.60;;;20.60;;
60610;SDS011;46439;51.164;13.572;2022-11-15T08:23:28;39.70;;;20.60;;
60610;SDS011;46439;51.164;13.572;2022-11-15T08:26:00;34.00;;;19.50;;
60610;SDS011;46439;51.164;13.572;2022-11-15T08:28:30;35.20;;;19.90;;
60610;SDS011;46439;51.164;13.572;2022-11-15T08:30:58;33.80;;;19.60;;
60610;SDS011;46439;51.164;13.572;2022-11-15T08:33:27;32.50;;;19.60;;
60610;SDS011;46439;51.164;13.572;2022-11-15T08:35:57;33.00;;;19.90;;
60610;SDS011;46439;51.164;13.572;2022-11-15T08:38:26;32.10;;;19.00;;
60610;SDS011;46439;51.164;13.572;2022-11-15T08:41:00;36.60;;;19.70;;
60610;SDS011;46439;51.164;13.572;2022-11-15T08:43:30;33.00;;;18.90;;
60610;SDS011;46439;51.164;13.572;2022-11-15T08:45:59;31.40;;;18.00;;
60610;SDS011;46439;51.164;13.572;2022-11-15T08:48:27;30.70;;;19.30;;
60610;SDS011;46439;51.164;13.572;2022-11-15T08:50:56;32.40;;;18.80;;
60610;SDS011;46439;51.164;13.572;2022-11-15T08:53:25;33.60;;;18.00;;
60610;SDS011;46439;51.164;13.572;2022-11-15T08:55:53;31.40;;;18.60;;
60610;SDS011;46439;51.164;13.572;2022-11-15T08:58:22;31.70;;;17.80;;
60610;SDS011;46439;51.164;13.572;2022-11-15T09:00:50;28.80;;;16.60;;
60610;SDS011;46439;51.164;13.572;2022-11-15T09:03:19;29.70;;;17.80;;
60610;SDS011;46439;51.164;13.572;2022-11-15T09:05:47;27.30;;;16.60;;
60610;SDS011;46439;51.164;13.572;2022-11-15T09:08:20;26.50;;;15.60;;
60610;SDS011;46439;51.164;13.572;2022-11-15T09:10:48;28.40;;;16.50;;
60610;SDS011;46439;51.164;13.572;2022-11-15T09:13:17;29.00;;;16.90;;
60610;SDS011;46439;51.164;13.572;2022-11-15T09:15:45;28.30;;;16.90;;
60610;SDS011;46439;51.164;13.572;2022-11-15T09:18:14;30.00;;;17.10;;
60610;SDS011;46439;51.164;13.572;2022-11-15T09:20:42;27.10;;;16.00;;
60610;SDS011;46439;51.164;13.572;2022-11-15T09:23:11;28.30;;;16.10;;
60610;SDS011;46439;51.164;13.572;2022-11-15T09:25:39;26.90;;;15.70;;
60610;SDS011;46439;51.164;13.572;2022-11-15T09:28:08;26.50;;;16.00;;
60610;SDS011;46439;51.164;13.572;2022-11-15T09:30:36;24.90;;;15.50;;
60610;SDS011;46439;51.164;13.572;2022-11-15T09:33:07;23.10;;;14.90;;
60610;SDS011;46439;51.164;13.572;2022-11-15T09:35:36;25.60;;;15.20;;
60610;SDS011;46439;51.164;13.572;2022-11-15T09:38:05;26.20;;;16.50;;
60610;SDS011;46439;51.164;13.572;2022-11-15T09:40:35;26.20;;;15.80;;
60610;SDS011;46439;51.164;13.572;2022-11-15T09:43:10;24.20;;;15.10;;
60610;SDS011;46439;51.164;13.572;2022-11-15T09:45:57;23.50;;;15.30;;
60610;SDS011;46439;51.164;13.572;2022-11-15T09:48:50;27.20;;;15.40;;
60610;SDS011;46439;51.164;13.572;2022-11-15T09:51:30;22.90;;;13.80;;
60610;SDS011;46439;51.164;13.572;2022-11-15T09:54:03;23.10;;;14.20;;
60610;SDS011;46439;51.164;13.572;2022-11-15T09:56:39;20.30;;;13.60;;
60610;SDS011;46439;51.164;13.572;2022-11-15T09:59:16;23.70;;;14.30;;
60610;SDS011;46439;51.164;13.572;2022-11-15T10:02:11;24.40;;;13.60;;
60610;SDS011;46439;51.164;13.572;2022-11-15T10:04:50;21.60;;;13.00;;
60610;SDS011;46439;51.164;13.572;2022-11-15T10:07:20;22.50;;;13.10;;
60610;SDS011;46439;51.164;13.572;2022-11-15T10:09:55;24.00;;;13.60;;
60610;SDS011;46439;51.164;13.572;2022-11-15T10:12:29;23.40;;;13.60;;
60610;SDS011;46439;51.164;13.572;2022-11-15T10:15:00;19.20;;;12.60;;
60610;SDS011;46439;51.164;13.572;2022-11-15T10:17:37;20.40;;;12.60;;
60610;SDS011;46439;51.164;13.572;2022-11-15T10:20:21;19.90;;;12.40;;
60610;SDS011;46439;51.164;13.572;2022-11-15T10:22:53;20.20;;;11.70;;
60610;SDS011;46439;51.164;13.572;2022-11-15T10:25:27;20.80;;;12.60;;
60610;SDS011;46439;51.164;13.572;2022-11-15T10:27:57;19.80;;;13.40;;
60610;SDS011;46439;51.164;13.572;2022-11-15T10:30:32;18.80;;;12.70;;
60610;SDS011;46439;51.164;13.572;2022-11-15T10:33:10;20.60;;;12.40;;
60610;SDS011;46439;51.164;13.572;2022-11-15T10:35:44;16.20;;;11.20;;
60610;SDS011;46439;51.164;13.572;2022-11-15T10:38:12;20.00;;;11.20;;
60610;SDS011;46439;51.164;13.572;2022-11-15T10:40:41;20.10;;;11.60;;
60610;SDS011;46439;51.164;13.572;2022-11-15T10:43:15;18.00;;;11.00;;
60610;SDS011;46439;51.164;13.572;2022-11-15T10:45:45;16.60;;;10.70;;
60610;SDS011;46439;51.164;13.572;2022-11-15T10:48:21;18.00;;;11.00;;
60610;SDS011;46439;51.164;13.572;2022-11-15T10:50:53;16.20;;;10.60;;
60610;SDS011;46439;51.164;13.572;2022-11-15T10:53:28;18.30;;;10.70;;
60610;SDS011;46439;51.164;13.572;2022-11-15T10:56:00;18.20;;;10.80;;
60610;SDS011;46439;51.164;13.572;2022-11-15T10:58:34;15.90;;;10.60;;
60610;SDS011;46439;51.164;13.572;2022-11-15T11:01:15;12.70;;;10.40;;
60610;SDS011;46439;51.164;13.572;2022-11-15T11:03:46;21.10;;;12.00;;
60610;SDS011;46439;51.164;13.572;2022-11-15T11:06:27;18.50;;;11.20;;
60610;SDS011;46439;51.164;13.572;2022-11-15T11:08:57;20.40;;;11.20;;
60610;SDS011;46439;51.164;13.572;2022-11-15T11:11:27;16.70;;;10.80;;
60610;SDS011;46439;51.164;13.572;2022-11-15T11:14:13;21.30;;;11.70;;
60610;SDS011;46439;51.164;13.572;2022-11-15T11:16:50;17.40;;;11.00;;
60610;SDS011;46439;51.164;13.572;2022-11-15T11:22:19;18.60;;;11.10;;
60610;SDS011;46439;51.164;13.572;2022-11-15T11:25:11;19.10;;;11.40;;
60610;SDS011;46439;51.164;13.572;2022-11-15T11:27:55;19.20;;;11.50;;
60610;SDS011;46439;51.164;13.572;2022-11-15T11:30:34;19.90;;;11.80;;
60610;SDS011;46439;51.164;13.572;2022-11-15T11:33:15;18.00;;;11.30;;
60610;SDS011;46439;51.164;13.572;2022-11-15T11:35:49;17.40;;;11.00;;
60610;SDS011;46439;51.164;13.572;2022-11-15T11:38:29;18.60;;;11.30;;
60610;SDS011;46439;51.164;13.572;2022-11-15T11:43:40;18.00;;;10.40;;
60610;SDS011;46439;51.164;13.572;2022-11-15T11:46:19;15.50;;;10.30;;
60610;SDS011;46439;51.164;13.572;2022-11-15T11:49:02;19.30;;;11.40;;
60610;SDS011;46439;51.164;13.572;2022-11-15T11:51:36;18.90;;;10.70;;
60610;SDS011;46439;51.164;13.572;2022-11-15T11:54:11;18.80;;;11.70;;
60610;SDS011;46439;51.164;13.572;2022-11-15T11:56:46;16.30;;;10.60;;
60610;SDS011;46439;51.164;13.572;2022-11-15T11:59:18;20.60;;;10.90;;
60610;SDS011;46439;51.164;13.572;2022-11-15T12:01:51;18.30;;;11.20;;
60610;SDS011;46439;51.164;13.572;2022-11-15T12:04:29;17.00;;;11.00;;
60610;SDS011;46439;51.164;13.572;2022-11-15T12:09:36;17.70;;;11.10;;
60610;SDS011;46439;51.164;13.572;2022-11-15T12:12:11;18.90;;;11.60;;
60610;SDS011;46439;51.164;13.572;2022-11-15T12:14:45;20.40;;;11.40;;
60610;SDS011;46439;51.164;13.572;2022-11-15T12:17:17;18.40;;;11.50;;
60610;SDS011;46439;51.164;13.572;2022-11-15T12:19:49;17.80;;;10.70;;
60610;SDS011;46439;51.164;13.572;2022-11-15T12:22:19;18.70;;;11.90;;
60610;SDS011;46439;51.164;13.572;2022-11-15T12:24:52;22.40;;;11.30;;
60610;SDS011;46439;51.164;13.572;2022-11-15T12:27:27;17.70;;;10.80;;
60610;SDS011;46439;51.164;13.572;2022-11-15T12:30:04;16.20;;;10.70;;
60610;SDS011;46439;51.164;13.572;2022-11-15T12:32:39;18.70;;;11.70;;
60610;SDS011;46439;51.164;13.572;2022-11-15T12:35:34;17.50;;;10.50;;
60610;SDS011;46439;51.164;13.572;2022-11-15T12:38:08;19.10;;;10.70;;
60610;SDS011;46439;51.164;13.572;2022-11-15T12:40:38;17.50;;;10.60;;
60610;SDS011;46439;51.164;13.572;2022-11-15T12:43:38;17.00;;;11.30;;
60610;SDS011;46439;51.164;13.572;2022-11-15T12:46:12;20.60;;;12.10;;
60610;SDS011;46439;51.164;13.572;2022-11-15T12:48:51;19.40;;;12.00;;
60610;SDS011;46439;51.164;13.572;2022-11-15T12:51:23;18.30;;;12.10;;
60610;SDS011;46439;51.164;13.572;2022-11-15T13:03:21;21.90;;;12.40;;
60610;SDS011;46439;51.164;13.572;2022-11-15T13:08:52;18.50;;;12.20;;
60610;SDS011;46439;51.164;13.572;2022-11-15T13:17:12;20.40;;;11.80;;
60610;SDS011;46439;51.164;13.572;2022-11-15T13:20:00;19.30;;;11.60;;
60610;SDS011;46439;51.164;13.572;2022-11-15T13:22:44;21.60;;;11.90;;
60610;SDS011;46439;51.164;13.572;2022-11-15T13:28:30;21.50;;;12.20;;
60610;SDS011;46439;51.164;13.572;2022-11-15T13:31:03;17.70;;;;;
60610;SDS011;46439;51.164;13.572;2022-11-15T13:33:57;21.00;;;12.60;;
60610;SDS011;46439;51.164;13.572;2022-11-15T13:36:28;19.80;;;12.30;;
60610;SDS011;46439;51.164;13.572;2022-11-15T13:39:01;19.60;;;11.60;;
60610;SDS011;46439;51.164;13.572;2022-11-15T13:41:32;19.20;;;11.70;;
60610;SDS011;46439;51.164;13.572;2022-11-15T13:44:02;21.50;;;11.30;;
60610;SDS011;46439;51.164;13.572;2022-11-15T13:46:45;20.00;;;12.00;;
60610;SDS011;46439;51.164;13.572;2022-11-15T13:49:14;20.20;;;12.90;;
60610;SDS011;46439;51.164;13.572;2022-11-15T13:51:44;19.20;;;12.30;;
60610;SDS011;46439;51.164;13.572;2022-11-15T13:54:18;22.60;;;12.30;;
60610;SDS011;46439;51.164;13.572;2022-11-15T13:56:52;20.90;;;12.10;;
60610;SDS011;46439;51.164;13.572;2022-11-15T13:59:24;23.10;;;12.70;;
60610;SDS011;46439;51.164;13.572;2022-11-15T14:01:54;19.10;;;12.20;;
60610;SDS011;46439;51.164;13.572;2022-11-15T14:04:25;19.20;;;12.90;;
60610;SDS011;46439;51.164;13.572;2022-11-15T14:07:00;20.60;;;13.60;;
60610;SDS011;46439;51.164;13.572;2022-11-15T14:09:31;21.30;;;13.20;;
60610;SDS011;46439;51.164;13.572;2022-11-15T14:12:02;20.60;;;13.20;;
60610;SDS011;46439;51.164;13.572;2022-11-15T14:14:45;22.40;;;13.70;;
60610;SDS011;46439;51.164;13.572;2022-11-15T14:17:19;21.80;;;13.60;;
60610;SDS011;46439;51.164;13.572;2022-11-15T14:20:00;21.90;;;13.70;;
60610;SDS011;46439;51.164;13.572;2022-11-15T14:22:52;23.10;;;13.40;;
60610;SDS011;46439;51.164;13.572;2022-11-15T14:25:22;21.40;;;12.80;;
60610;SDS011;46439;51.164;13.572;2022-11-15T14:28:11;21.00;;;13.20;;
60610;SDS011;46439;51.164;13.572;2022-11-15T14:30:43;21.30;;;13.90;;
60610;SDS011;46439;51.164;13.572;2022-11-15T14:33:20;27.90;;;13.60;;
60610;SDS011;46439;51.164;13.572;2022-11-15T14:35:51;20.50;;;12.70;;
60610;SDS011;46439;51.164;13.572;2022-11-15T14:38:21;22.20;;;14.30;;
60610;SDS011;46439;51.164;13.572;2022-11-15T14:40:50;20.90;;;13.70;;
60610;SDS011;46439;51.164;13.572;2022-11-15T14:43:20;21.30;;;13.10;;
60610;SDS011;46439;51.164;13.572;2022-11-15T14:45:49;24.80;;;13.90;;
60610;SDS011;46439;51.164;13.572;2022-11-15T14:48:17;24.40;;;13.80;;
60610;SDS011;46439;51.164;13.572;2022-11-15T14:50:46;25.10;;;14.80;;
60610;SDS011;46439;51.164;13.572;2022-11-15T14:53:15;23.10;;;14.70;;
60610;SDS011;46439;51.164;13.572;2022-11-15T14:55:45;24.30;;;14.90;;
60610;SDS011;46439;51.164;13.572;2022-11-15T14:58:14;22.90;;;14.60;;
60610;SDS011;46439;51.164;13.572;2022-11-15T15:00:42;24.10;;;14.30;;
60610;SDS011;46439;51.164;13.572;2022-11-15T15:03:11;21.40;;;13.70;;
60610;SDS011;46439;51.164;13.572;2022-11-15T15:05:40;22.20;;;13.70;;
60610;SDS011;46439;51.164;13.572;2022-11-15T15:08:10;22.50;;;14.60;;